createdAt,value
2019-05-20T00:00:41.768Z,93.30
2019-05-20T00:03:11.479Z,93.20
2019-05-20T00:05:41.471Z,93.20
2019-05-20T00:08:12.376Z,93.20
2019-05-20T00:10:42.149Z,93.10
2019-05-20T00:13:11.828Z,93.30
2019-05-20T00:15:41.564Z,93.10
2019-05-20T00:18:11.275Z,93.10
2019-05-20T00:20:40.987Z,92.80
2019-05-20T00:23:10.697Z,92.80
2019-05-20T00:25:41.298Z,93.00
2019-05-20T00:28:11.040Z,93.10
2019-05-20T00:30:40.747Z,93.10
2019-05-20T00:33:10.456Z,93.10
2019-05-20T00:35:40.167Z,93.00
2019-05-20T00:38:09.851Z,92.70
2019-05-20T00:40:39.592Z,92.60
2019-05-20T00:43:09.297Z,92.40
2019-05-20T00:45:38.979Z,92.60
2019-05-20T00:48:08.695Z,92.40
2019-05-20T00:50:38.427Z,92.50
2019-05-20T00:53:08.138Z,92.40
2019-05-20T00:55:37.827Z,92.70
2019-05-20T00:58:07.530Z,92.90
2019-05-20T01:00:37.269Z,93.10
2019-05-20T01:03:06.981Z,93.30
2019-05-20T01:05:36.690Z,93.00
2019-05-20T01:08:06.298Z,92.70
2019-05-20T01:10:35.978Z,92.20
2019-05-20T01:13:05.614Z,91.90
2019-05-20T01:15:35.334Z,91.80
2019-05-20T01:18:05.010Z,91.90
2019-05-20T01:20:34.747Z,91.90
2019-05-20T01:23:04.339Z,92.00
2019-05-20T01:25:35.103Z,92.00
2019-05-20T01:28:05.749Z,92.00
2019-05-20T01:30:35.428Z,92.00
2019-05-20T01:33:13.877Z,91.90
2019-05-20T01:35:36.336Z,91.70
2019-05-20T01:38:06.067Z,92.00
2019-05-20T01:40:35.703Z,91.90
2019-05-20T01:43:06.310Z,91.40
2019-05-20T01:45:36.044Z,91.60
2019-05-20T01:48:05.840Z,91.20
2019-05-20T01:50:35.571Z,91.40
2019-05-20T01:53:05.277Z,91.50
2019-05-20T01:55:34.886Z,91.40
2019-05-20T01:58:04.596Z,91.50
2019-05-20T02:00:34.307Z,91.70
2019-05-20T02:03:03.988Z,91.60
2019-05-20T02:05:33.626Z,91.60
2019-05-20T02:08:03.342Z,91.80
2019-05-20T02:10:33.044Z,91.40
2019-05-20T02:13:02.765Z,91.40
2019-05-20T02:15:45.674Z,91.40
2019-05-20T02:18:15.384Z,90.90
2019-05-20T02:20:45.094Z,91.00
2019-05-20T02:23:15.117Z,91.00
2019-05-20T02:25:48.235Z,91.00
2019-05-20T02:28:17.888Z,91.30
2019-05-20T02:30:48.652Z,91.00
2019-05-20T02:33:18.357Z,91.60
2019-05-20T02:35:49.023Z,91.20
2019-05-20T02:38:18.700Z,91.30
2019-05-20T02:40:48.408Z,91.40
2019-05-20T02:43:18.117Z,91.40
2019-05-20T02:45:47.799Z,91.00
2019-05-20T02:48:17.512Z,90.80
2019-05-20T02:50:47.254Z,91.00
2019-05-20T02:53:16.958Z,91.10
2019-05-20T02:55:46.676Z,91.20
2019-05-20T02:58:16.380Z,91.30
2019-05-20T03:00:46.093Z,91.00
2019-05-20T03:03:15.773Z,91.20
2019-05-20T03:05:45.518Z,91.10
2019-05-20T03:08:15.218Z,91.50
2019-05-20T03:10:45.934Z,91.70
2019-05-20T03:13:15.664Z,91.40
2019-05-20T03:15:46.401Z,91.50
2019-05-20T03:18:16.110Z,91.40
2019-05-20T03:20:45.818Z,91.40
2019-05-20T03:23:16.585Z,91.40
2019-05-20T03:25:46.263Z,91.80
2019-05-20T03:28:15.949Z,92.00
2019-05-20T03:30:45.683Z,92.10
2019-05-20T03:33:15.403Z,92.10
2019-05-20T03:35:45.108Z,91.50
2019-05-20T03:38:16.533Z,91.90
2019-05-20T03:40:46.161Z,92.20
2019-05-20T03:43:15.880Z,92.10
2019-05-20T03:45:45.558Z,92.60
2019-05-20T03:48:15.298Z,92.70
2019-05-20T03:50:45.003Z,93.20
2019-05-20T03:53:14.585Z,93.20
2019-05-20T03:55:44.536Z,93.30
2019-05-20T03:58:14.279Z,93.10
2019-05-20T04:00:47.656Z,92.80
2019-05-20T04:03:17.347Z,92.80
2019-05-20T04:05:47.066Z,93.10
2019-05-20T04:08:16.776Z,92.30
2019-05-20T04:10:46.473Z,91.90
2019-05-20T04:13:17.496Z,92.30
2019-05-20T04:15:47.200Z,93.00
2019-05-20T04:18:16.917Z,92.40
2019-05-20T04:20:46.628Z,92.50
2019-05-20T04:23:16.357Z,92.60
2019-05-20T04:25:46.040Z,93.00
2019-05-20T04:28:15.777Z,93.40
2019-05-20T04:30:45.487Z,93.80
2019-05-20T04:33:15.196Z,94.10
2019-05-20T04:35:49.264Z,94.30
2019-05-20T04:38:16.227Z,94.60
2019-05-20T04:40:45.940Z,95.00
2019-05-20T04:43:15.675Z,95.00
2019-05-20T04:45:47.078Z,95.10
2019-05-20T04:48:16.840Z,95.10
2019-05-20T04:50:46.477Z,95.10
2019-05-20T04:53:17.178Z,95.10
2019-05-20T04:55:47.917Z,94.90
2019-05-20T04:58:17.603Z,95.10
2019-05-20T05:00:57.555Z,95.00
2019-05-20T05:03:27.385Z,94.90
2019-05-20T05:05:57.104Z,95.00
2019-05-20T05:08:26.984Z,95.40
2019-05-20T05:10:56.821Z,94.40
2019-05-20T05:13:26.455Z,94.80
2019-05-20T05:15:56.194Z,94.90
2019-05-20T05:18:25.802Z,94.60
2019-05-20T05:20:57.287Z,94.30
2019-05-20T05:23:26.935Z,93.60
2019-05-20T05:25:56.671Z,93.60
2019-05-20T05:28:26.387Z,93.40
2019-05-20T05:30:56.094Z,93.10
2019-05-20T05:33:25.803Z,93.00
2019-05-20T05:35:56.759Z,92.80
2019-05-20T05:38:26.553Z,93.10
2019-05-20T05:40:56.263Z,93.20
2019-05-20T05:43:25.947Z,92.80
2019-05-20T05:45:55.685Z,92.20
2019-05-20T05:48:27.114Z,92.80
2019-05-20T05:50:56.743Z,92.50
2019-05-20T05:53:26.428Z,92.50
2019-05-20T05:55:56.163Z,92.80
2019-05-20T05:58:25.880Z,93.00
2019-05-20T06:00:55.556Z,93.20
2019-05-20T06:03:25.285Z,93.70
2019-05-20T06:06:10.615Z,94.20
2019-05-20T06:08:26.353Z,94.50
2019-05-20T06:10:56.039Z,95.30
2019-05-20T06:13:25.774Z,95.20
2019-05-20T06:15:55.485Z,94.70
2019-05-20T06:18:25.192Z,94.00
2019-05-20T06:20:54.902Z,94.40
2019-05-20T06:23:24.509Z,93.80
2019-05-20T06:25:54.221Z,94.20
2019-05-20T06:28:25.791Z,94.50
2019-05-20T06:30:55.281Z,94.50
2019-05-20T06:33:25.949Z,94.70
2019-05-20T06:35:55.722Z,94.80
2019-05-20T06:38:35.776Z,95.40
2019-05-20T06:41:08.335Z,95.40
2019-05-20T06:43:37.968Z,95.40
2019-05-20T06:46:07.672Z,95.60
2019-05-20T06:48:37.382Z,95.60
2019-05-20T06:51:07.092Z,95.90
2019-05-20T06:53:36.765Z,96.10
2019-05-20T06:56:06.511Z,96.20
2019-05-20T06:58:36.222Z,96.40
2019-05-20T07:01:06.958Z,96.40
2019-05-20T07:03:36.563Z,96.40
2019-05-20T07:06:06.272Z,96.60
2019-05-20T07:08:37.709Z,96.60
2019-05-20T07:11:07.332Z,96.90
2019-05-20T07:13:37.119Z,96.80
2019-05-20T07:16:06.861Z,97.00
2019-05-20T07:18:37.541Z,97.10
2019-05-20T07:21:07.202Z,97.20
2019-05-20T07:23:36.907Z,97.20
2019-05-20T07:26:06.593Z,97.40
2019-05-20T07:28:36.346Z,97.60
2019-05-20T07:31:06.022Z,97.50
2019-05-20T07:33:35.747Z,97.40
2019-05-20T07:36:05.465Z,97.40
2019-05-20T07:38:35.168Z,97.40
2019-05-20T07:41:04.880Z,97.40
2019-05-20T07:43:34.564Z,97.40
2019-05-20T07:46:05.424Z,97.30
2019-05-20T07:48:35.131Z,97.40
2019-05-20T07:51:04.962Z,97.10
2019-05-20T07:53:34.672Z,97.20
2019-05-20T07:56:09.652Z,97.20
2019-05-20T07:58:39.811Z,97.10
2019-05-20T08:01:09.496Z,97.00
2019-05-20T08:03:39.232Z,97.00
2019-05-20T08:06:08.946Z,97.00
2019-05-20T08:08:38.656Z,97.00
2019-05-20T08:11:08.362Z,96.90
2019-05-20T08:13:38.083Z,96.90
2019-05-20T08:16:07.782Z,97.10
2019-05-20T08:18:38.504Z,97.10
2019-05-20T08:21:08.230Z,96.90
2019-05-20T08:23:37.938Z,96.90
2019-05-20T08:26:07.648Z,96.90
2019-05-20T08:28:37.358Z,97.00
2019-05-20T08:31:07.067Z,96.70
2019-05-20T08:33:36.819Z,96.90
2019-05-20T08:36:06.590Z,96.80
2019-05-20T08:38:36.303Z,96.80
2019-05-20T08:41:06.013Z,96.80
2019-05-20T08:43:36.635Z,96.70
2019-05-20T08:46:06.352Z,96.90
2019-05-20T08:48:36.061Z,96.80
2019-05-20T08:51:06.769Z,96.80
2019-05-20T08:53:36.507Z,96.40
2019-05-20T08:56:07.960Z,96.50
2019-05-20T08:58:37.668Z,96.60
2019-05-20T09:01:08.396Z,96.40
2019-05-20T09:03:38.626Z,96.70
2019-05-20T09:06:08.316Z,96.60
2019-05-20T09:08:39.012Z,96.70
2019-05-20T09:11:09.776Z,96.80
2019-05-20T09:13:39.514Z,96.80
2019-05-20T09:16:09.244Z,96.90
2019-05-20T09:18:39.896Z,96.60
2019-05-20T09:21:10.092Z,96.60
2019-05-20T09:23:40.196Z,96.00
2019-05-20T09:26:09.879Z,95.70
2019-05-20T09:28:40.512Z,95.60
2019-05-20T09:31:12.218Z,96.00
2019-05-20T09:33:41.982Z,96.20
2019-05-20T09:36:11.718Z,96.20
2019-05-20T09:38:41.439Z,96.20
2019-05-20T09:41:11.115Z,95.90
2019-05-20T09:43:41.314Z,96.20
2019-05-20T09:46:11.175Z,96.10
2019-05-20T09:48:41.495Z,95.20
2019-05-20T09:51:11.218Z,95.50
2019-05-20T09:53:40.896Z,95.50
2019-05-20T09:56:10.547Z,95.70
2019-05-20T09:58:40.241Z,95.80
2019-05-20T10:01:21.998Z,95.80
2019-05-20T10:03:51.716Z,95.30
2019-05-20T10:06:22.267Z,95.40
2019-05-20T10:08:51.995Z,95.80
2019-05-20T10:11:21.688Z,95.30
2019-05-20T10:13:51.396Z,95.20
2019-05-20T10:16:20.980Z,95.00
2019-05-20T10:18:50.713Z,94.70
2019-05-20T10:21:20.423Z,94.30
2019-05-20T10:23:50.136Z,94.20
2019-05-20T10:26:20.782Z,94.00
2019-05-20T10:28:50.374Z,94.60
2019-05-20T10:31:20.086Z,94.80
2019-05-20T10:33:49.801Z,93.70
2019-05-20T10:36:20.600Z,93.70
2019-05-20T10:38:58.524Z,93.80
2019-05-20T10:41:21.491Z,94.10
2019-05-20T10:43:51.169Z,93.50
2019-05-20T10:46:22.628Z,94.20
2019-05-20T10:48:52.257Z,94.20
2019-05-20T10:51:21.939Z,94.40
2019-05-20T10:53:51.653Z,94.30
2019-05-20T10:56:21.292Z,93.20
2019-05-20T10:58:50.999Z,92.50
2019-05-20T11:01:20.677Z,92.60
2019-05-20T11:03:50.411Z,92.30
2019-05-20T11:06:20.123Z,92.60
2019-05-20T11:08:49.834Z,92.60
2019-05-20T11:11:19.541Z,92.10
2019-05-20T11:13:49.251Z,91.90
2019-05-20T11:16:18.936Z,91.90
2019-05-20T11:18:48.585Z,92.30
2019-05-20T11:21:18.293Z,91.70
2019-05-20T11:23:47.989Z,92.10
2019-05-20T11:26:17.701Z,92.70
2019-05-20T11:28:47.383Z,91.80
2019-05-20T11:31:17.228Z,92.10
2019-05-20T11:33:46.932Z,92.20
2019-05-20T11:36:16.650Z,92.50
2019-05-20T11:38:46.352Z,92.50
2019-05-20T11:41:16.071Z,92.30
2019-05-20T11:43:45.774Z,93.10
2019-05-20T11:46:15.459Z,93.30
2019-05-20T11:48:45.099Z,93.60
2019-05-20T11:51:14.800Z,93.60
2019-05-20T11:53:44.408Z,94.20
2019-05-20T11:56:15.075Z,93.80
2019-05-20T11:58:44.856Z,94.20
2019-05-20T12:01:14.546Z,94.40
2019-05-20T12:03:45.963Z,94.20
2019-05-20T12:06:15.858Z,94.00
2019-05-20T12:08:45.434Z,94.50
2019-05-20T12:11:15.146Z,94.80
2019-05-20T12:13:45.818Z,94.60
2019-05-20T12:16:15.589Z,95.00
2019-05-20T12:18:45.363Z,95.20
2019-05-20T12:21:15.085Z,95.20
2019-05-20T12:23:44.797Z,95.30
2019-05-20T12:26:15.544Z,95.50
2019-05-20T12:28:45.264Z,95.50
2019-05-20T12:31:14.974Z,95.70
2019-05-20T12:33:46.480Z,95.90
2019-05-20T12:36:17.807Z,95.70
2019-05-20T12:38:47.485Z,95.90
2019-05-20T12:41:17.116Z,95.70
2019-05-20T12:43:46.930Z,95.90
2019-05-20T12:46:16.597Z,96.00
2019-05-20T12:48:46.345Z,96.40
2019-05-20T12:51:16.036Z,96.80
2019-05-20T12:53:45.746Z,96.90
2019-05-20T12:56:19.250Z,96.90
2019-05-20T12:58:46.805Z,96.70
2019-05-20T13:01:16.516Z,96.80
2019-05-20T13:03:46.214Z,96.80
2019-05-20T13:06:15.934Z,96.70
2019-05-20T13:08:45.625Z,96.60
2019-05-20T13:11:16.341Z,96.60
2019-05-20T13:13:46.087Z,96.90
2019-05-20T13:16:15.902Z,97.20
2019-05-20T13:18:55.572Z,97.60
2019-05-20T13:21:18.291Z,97.70
2019-05-20T13:23:49.012Z,98.00
2019-05-20T13:26:19.120Z,98.10
2019-05-20T13:28:48.753Z,97.80
2019-05-20T13:31:18.461Z,97.70
2019-05-20T13:33:48.179Z,97.50
2019-05-20T13:36:17.885Z,97.30
2019-05-20T13:38:47.592Z,97.30
2019-05-20T13:41:17.606Z,97.40
2019-05-20T13:43:47.402Z,97.40
2019-05-20T13:46:18.918Z,97.70
2019-05-20T13:48:48.378Z,97.60
2019-05-20T13:51:18.088Z,97.90
2019-05-20T13:53:49.652Z,97.90
2019-05-20T13:56:19.147Z,98.00
2019-05-20T13:58:48.754Z,97.90
2019-05-20T14:01:18.490Z,97.90
2019-05-20T14:03:49.206Z,98.00
2019-05-20T14:06:18.888Z,98.00
2019-05-20T14:08:48.619Z,98.00
2019-05-20T14:11:32.393Z,97.90
2019-05-20T14:13:49.657Z,97.70
2019-05-20T14:16:19.267Z,97.60
2019-05-20T14:18:50.022Z,97.00
2019-05-20T14:21:19.734Z,97.40
2019-05-20T14:23:49.348Z,97.50
2019-05-20T14:26:19.049Z,97.60
2019-05-20T14:28:48.756Z,97.80
2019-05-20T14:31:18.469Z,97.70
2019-05-20T14:33:48.188Z,97.60
2019-05-20T14:36:37.875Z,97.60
2019-05-20T14:38:49.236Z,97.40
2019-05-20T14:41:21.716Z,97.60
2019-05-20T14:43:50.197Z,97.50
2019-05-20T14:46:19.901Z,97.10
2019-05-20T14:48:49.498Z,97.10
2019-05-20T14:51:19.221Z,97.10
2019-05-20T14:53:50.191Z,97.10
2019-05-20T14:56:19.973Z,97.10
2019-05-20T14:58:49.682Z,97.30
2019-05-20T15:01:19.391Z,97.20
2019-05-20T15:03:49.105Z,97.30
2019-05-20T15:06:18.814Z,97.30
2019-05-20T15:08:48.523Z,97.20
2019-05-20T15:11:18.210Z,97.30
2019-05-20T15:13:47.942Z,96.30
2019-05-20T15:16:17.654Z,96.90
2019-05-20T15:18:47.363Z,97.10
2019-05-20T15:21:17.073Z,97.20
2019-05-20T15:23:46.786Z,97.20
2019-05-20T15:26:17.418Z,97.20
2019-05-20T15:28:48.179Z,97.30
2019-05-20T15:31:17.858Z,97.20
2019-05-20T15:33:47.548Z,97.40
2019-05-20T15:36:17.337Z,97.50
2019-05-20T15:38:46.964Z,97.60
2019-05-20T15:41:16.699Z,97.80
2019-05-20T15:43:46.291Z,98.00
2019-05-20T15:46:16.019Z,98.10
2019-05-20T15:48:45.727Z,98.40
2019-05-20T15:51:15.438Z,98.40
2019-05-20T15:53:45.149Z,98.40
2019-05-20T15:56:14.857Z,98.50
2019-05-20T15:58:44.568Z,98.40
2019-05-20T16:01:15.242Z,98.40
2019-05-20T16:03:44.915Z,98.50
2019-05-20T16:06:14.619Z,98.70
2019-05-20T16:08:44.328Z,98.80
2019-05-20T16:11:14.046Z,98.70
2019-05-20T16:13:43.663Z,98.70
2019-05-20T16:16:14.358Z,98.70
2019-05-20T16:19:06.503Z,98.80
2019-05-20T16:21:36.224Z,98.80
2019-05-20T16:24:05.936Z,98.80
2019-05-20T16:26:37.494Z,98.90
2019-05-20T16:29:07.357Z,98.90
2019-05-20T16:31:37.115Z,98.90
2019-05-20T16:34:08.728Z,98.70
2019-05-20T16:36:38.076Z,99.10
2019-05-20T16:39:07.757Z,99.10
2019-05-20T16:41:37.480Z,99.20
2019-05-20T16:44:08.226Z,99.30
2019-05-20T16:46:39.806Z,99.30
2019-05-20T16:49:09.181Z,99.40
2019-05-20T16:51:39.199Z,99.40
2019-05-20T16:54:08.812Z,99.40
2019-05-20T16:56:38.519Z,99.50
2019-05-20T16:59:08.230Z,99.60
2019-05-20T17:01:45.866Z,99.70
2019-05-20T17:04:09.185Z,99.70
2019-05-20T17:06:38.894Z,99.80
2019-05-20T17:09:08.608Z,99.60
2019-05-20T17:11:38.313Z,99.70
2019-05-20T17:14:10.558Z,99.60
2019-05-20T17:16:39.372Z,99.60
2019-05-20T17:19:09.086Z,99.50
2019-05-20T17:21:38.768Z,99.50
2019-05-20T17:24:08.425Z,99.50
2019-05-20T17:26:38.089Z,99.50
2019-05-20T17:29:07.822Z,99.60
2019-05-20T17:31:38.769Z,99.60
2019-05-20T17:34:08.350Z,99.60
2019-05-20T17:36:39.833Z,99.60
2019-05-20T17:39:09.528Z,99.60
2019-05-20T17:41:39.255Z,99.60
2019-05-20T17:44:08.891Z,99.60
2019-05-20T17:46:38.534Z,99.60
2019-05-20T17:49:09.290Z,99.60
2019-05-20T17:51:38.897Z,99.60
2019-05-20T17:54:08.610Z,99.60
2019-05-20T17:56:38.295Z,99.60
2019-05-20T17:59:07.899Z,99.70
2019-05-20T18:01:37.635Z,99.70
2019-05-20T18:04:07.352Z,99.70
2019-05-20T18:06:37.058Z,99.70
2019-05-20T18:09:07.763Z,99.70
2019-05-20T18:11:37.547Z,99.70
2019-05-20T18:14:08.443Z,99.80
2019-05-20T18:16:38.067Z,99.80
2019-05-20T18:19:07.762Z,99.90
2019-05-20T18:21:37.443Z,99.80
2019-05-20T18:24:07.188Z,99.90
2019-05-20T18:26:36.886Z,99.90
2019-05-20T18:29:06.600Z,99.90
2019-05-20T18:31:38.029Z,99.90
2019-05-20T18:34:08.725Z,99.90
2019-05-20T18:36:38.385Z,99.90
2019-05-20T18:39:08.077Z,99.90
2019-05-20T18:41:37.809Z,99.90
2019-05-20T18:44:07.499Z,99.90
2019-05-20T18:46:37.141Z,99.90
2019-05-20T18:49:06.818Z,99.70
2019-05-20T18:51:37.475Z,99.60
2019-05-20T18:54:08.138Z,99.60
2019-05-20T18:56:37.815Z,99.60
2019-05-20T18:59:07.499Z,99.90
2019-05-20T19:01:47.570Z,99.10
2019-05-20T19:04:08.596Z,99.10
2019-05-20T19:06:50.771Z,99.10
2019-05-20T19:09:20.492Z,99.00
2019-05-20T19:11:50.204Z,99.00
2019-05-20T19:14:20.874Z,98.40
2019-05-20T19:16:50.546Z,98.70
2019-05-20T19:19:20.255Z,98.40
2019-05-20T19:21:49.971Z,98.40
2019-05-20T19:24:19.675Z,98.20
2019-05-20T19:26:50.382Z,98.10
2019-05-20T19:29:19.991Z,97.60
2019-05-20T19:32:00.863Z,97.40
2019-05-20T19:34:20.949Z,97.30
2019-05-20T19:36:50.684Z,96.90
2019-05-20T19:39:20.495Z,96.70
2019-05-20T19:41:50.210Z,96.20
2019-05-20T19:44:19.919Z,96.20
2019-05-20T19:46:49.629Z,96.00
2019-05-20T19:49:21.033Z,95.90
2019-05-20T19:51:51.782Z,96.60
2019-05-20T19:54:21.520Z,96.30
2019-05-20T19:56:51.231Z,96.30
2019-05-20T19:59:20.848Z,96.20
2019-05-20T20:01:50.459Z,96.30
2019-05-20T20:04:20.158Z,96.30
2019-05-20T20:06:49.869Z,96.20
2019-05-20T20:09:19.560Z,96.10
2019-05-20T20:11:49.184Z,95.70
2019-05-20T20:14:18.894Z,96.10
2019-05-20T20:16:48.475Z,96.00
2019-05-20T20:19:18.213Z,96.10
2019-05-20T20:21:47.820Z,96.70
2019-05-20T20:24:17.508Z,96.40
2019-05-20T20:26:47.240Z,96.30
2019-05-20T20:29:17.041Z,96.20
2019-05-20T20:31:47.803Z,96.50
2019-05-20T20:34:17.483Z,96.70
2019-05-20T20:36:47.207Z,95.90
2019-05-20T20:39:16.916Z,96.80
2019-05-20T20:41:46.599Z,96.60
2019-05-20T20:44:16.337Z,96.60
2019-05-20T20:46:46.047Z,95.60
2019-05-20T20:49:17.447Z,95.10
2019-05-20T20:51:47.183Z,95.70
2019-05-20T20:54:16.918Z,95.70
2019-05-20T20:56:48.355Z,95.40
2019-05-20T20:59:17.979Z,94.90
2019-05-20T21:01:47.687Z,95.40
2019-05-20T21:04:17.397Z,94.50
2019-05-20T21:06:47.109Z,94.60
2019-05-20T21:09:18.060Z,94.70
2019-05-20T21:11:47.757Z,95.00
2019-05-20T21:14:19.198Z,94.90
2019-05-20T21:16:48.919Z,94.40
2019-05-20T21:19:18.604Z,95.00
2019-05-20T21:21:48.337Z,94.70
2019-05-20T21:24:17.951Z,95.20
2019-05-20T21:26:47.628Z,95.60
2019-05-20T21:29:19.094Z,95.40
2019-05-20T21:31:48.714Z,96.10
2019-05-20T21:34:18.399Z,96.60
2019-05-20T21:36:48.415Z,96.80
2019-05-20T21:39:20.150Z,96.60
2019-05-20T21:41:49.806Z,96.40
2019-05-20T21:44:19.530Z,95.40
2019-05-20T21:46:49.125Z,96.40
2019-05-20T21:49:18.836Z,97.00
2019-05-20T21:51:50.474Z,96.70
2019-05-20T21:54:19.893Z,96.70
2019-05-20T21:56:50.201Z,96.30
2019-05-20T21:59:21.157Z,96.60
2019-05-20T22:01:50.866Z,96.50
2019-05-20T22:04:20.560Z,96.30
2019-05-20T22:06:50.263Z,95.90
2019-05-20T22:09:20.971Z,96.50
2019-05-20T22:11:50.731Z,96.00
2019-05-20T22:14:21.466Z,96.10
2019-05-20T22:16:51.156Z,96.50
2019-05-20T22:19:20.786Z,96.70
2019-05-20T22:21:53.875Z,96.50
2019-05-20T22:24:23.481Z,97.00
2019-05-20T22:26:53.103Z,97.20
2019-05-20T22:29:22.802Z,96.70
2019-05-20T22:31:52.508Z,96.70
2019-05-20T22:34:22.116Z,96.80
2019-05-20T22:36:51.825Z,96.70
2019-05-20T22:39:22.022Z,96.70
2019-05-20T22:41:51.760Z,97.10
2019-05-20T22:44:21.445Z,97.30
2019-05-20T22:46:51.087Z,96.80
2019-05-20T22:49:20.786Z,96.50
2019-05-20T22:51:52.214Z,96.90
2019-05-20T22:54:21.845Z,96.60
2019-05-20T22:56:51.556Z,96.80
2019-05-20T22:59:21.267Z,97.10
2019-05-20T23:01:50.947Z,96.70
2019-05-20T23:04:21.663Z,96.90
2019-05-20T23:06:51.459Z,97.60
2019-05-20T23:09:21.096Z,97.90
2019-05-20T23:11:50.944Z,97.90
2019-05-20T23:14:20.653Z,97.80
2019-05-20T23:16:50.365Z,97.80
2019-05-20T23:19:20.074Z,97.80
2019-05-20T23:21:49.759Z,98.20
2019-05-20T23:24:19.490Z,98.20
2019-05-20T23:26:49.106Z,98.60
2019-05-20T23:29:19.767Z,98.60
2019-05-20T23:31:50.465Z,98.60
2019-05-20T23:34:21.883Z,98.80
2019-05-20T23:36:51.524Z,98.50
2019-05-20T23:39:21.156Z,98.40
2019-05-20T23:41:50.842Z,98.20
2019-05-20T23:44:20.527Z,98.10
2019-05-20T23:46:50.237Z,98.50
2019-05-20T23:49:19.947Z,98.40
2019-05-20T23:51:49.659Z,97.90
2019-05-20T23:54:19.393Z,97.60
2019-05-20T23:56:49.104Z,97.90
2019-05-20T23:59:18.695Z,97.40
